Prairie Lea, Texas
Current Conditions -  °F | °C
As of 6:45 PM on Sunday 21 Dec 2014 (Local Time) from KHYI Reporting Station
Overcast Overcast  
Wind Chill: 55°   Ceiling: 1300
Heat Index: 55°   Visibility: 7mi
Dew Point: 50°   Wind: 12mph
Humidity: 82%   Direction: 190°S
Pressure: 29.89"   Gusts: NA
Location:  29.73°N, 97.75°W
Report Text: KHYI 220045Z 19010KT 7SM OVC013 13/10 A2989 RMK LAST
Loading
Personal Weather Stations






























Interactive Weather Map New forecast layout! Learn more

10-Day Weather Forecast

Advertisements
Track Severe Weather on mobile